sensor_id;sensor_type;location;lat;lon;timestamp;P1;durP1;ratioP1;P2;durP2;ratioP2
5054;SDS011;13829;48.990;8.346;2024-03-17T00:00:37;7.40;;;4.10;;
5054;SDS011;13829;48.990;8.346;2024-03-17T00:03:05;4.07;;;3.57;;
5054;SDS011;13829;48.990;8.346;2024-03-17T00:05:34;3.80;;;3.40;;
5054;SDS011;13829;48.990;8.346;2024-03-17T00:08:00;3.27;;;2.90;;
5054;SDS011;13829;48.990;8.346;2024-03-17T00:10:29;4.07;;;3.53;;
5054;SDS011;13829;48.990;8.346;2024-03-17T00:12:55;4.40;;;4.00;;
5054;SDS011;13829;48.990;8.346;2024-03-17T00:15:23;6.87;;;5.40;;
5054;SDS011;13829;48.990;8.346;2024-03-17T00:17:50;11.30;;;8.03;;
5054;SDS011;13829;48.990;8.346;2024-03-17T00:20:16;12.70;;;9.90;;
5054;SDS011;13829;48.990;8.346;2024-03-17T00:22:46;9.60;;;7.20;;
5054;SDS011;13829;48.990;8.346;2024-03-17T00:25:14;9.83;;;5.90;;
5054;SDS011;13829;48.990;8.346;2024-03-17T00:27:40;9.87;;;7.17;;
5054;SDS011;13829;48.990;8.346;2024-03-17T00:30:09;10.80;;;8.73;;
5054;SDS011;13829;48.990;8.346;2024-03-17T00:32:37;8.80;;;7.03;;
5054;SDS011;13829;48.990;8.346;2024-03-17T00:35:06;9.67;;;7.50;;
5054;SDS011;13829;48.990;8.346;2024-03-17T00:37:33;13.57;;;8.70;;
5054;SDS011;13829;48.990;8.346;2024-03-17T00:40:01;14.47;;;8.53;;
5054;SDS011;13829;48.990;8.346;2024-03-17T00:42:28;11.07;;;9.23;;
5054;SDS011;13829;48.990;8.346;2024-03-17T00:44:56;9.70;;;7.70;;
5054;SDS011;13829;48.990;8.346;2024-03-17T00:47:24;8.73;;;7.13;;
5054;SDS011;13829;48.990;8.346;2024-03-17T00:49:52;9.00;;;7.07;;
5054;SDS011;13829;48.990;8.346;2024-03-17T00:52:17;10.53;;;7.23;;
5054;SDS011;13829;48.990;8.346;2024-03-17T00:54:46;9.93;;;7.07;;
5054;SDS011;13829;48.990;8.346;2024-03-17T00:57:13;10.60;;;6.50;;
5054;SDS011;13829;48.990;8.346;2024-03-17T00:59:41;11.13;;;7.40;;
5054;SDS011;13829;48.990;8.346;2024-03-17T01:02:08;9.63;;;7.37;;
5054;SDS011;13829;48.990;8.346;2024-03-17T01:04:35;11.77;;;7.40;;
5054;SDS011;13829;48.990;8.346;2024-03-17T01:07:01;11.47;;;7.77;;
5054;SDS011;13829;48.990;8.346;2024-03-17T01:09:28;11.80;;;7.00;;
5054;SDS011;13829;48.990;8.346;2024-03-17T01:11:54;10.40;;;7.60;;
5054;SDS011;13829;48.990;8.346;2024-03-17T01:14:22;10.57;;;8.17;;
5054;SDS011;13829;48.990;8.346;2024-03-17T01:16:50;11.53;;;7.67;;
5054;SDS011;13829;48.990;8.346;2024-03-17T01:19:17;9.83;;;7.00;;
5054;SDS011;13829;48.990;8.346;2024-03-17T01:21:43;9.33;;;7.27;;
5054;SDS011;13829;48.990;8.346;2024-03-17T01:24:10;10.00;;;7.33;;
5054;SDS011;13829;48.990;8.346;2024-03-17T01:26:36;9.63;;;7.23;;
5054;SDS011;13829;48.990;8.346;2024-03-17T01:29:02;13.20;;;7.33;;
5054;SDS011;13829;48.990;8.346;2024-03-17T01:31:30;8.57;;;6.23;;
5054;SDS011;13829;48.990;8.346;2024-03-17T01:33:57;8.70;;;7.20;;
5054;SDS011;13829;48.990;8.346;2024-03-17T01:36:23;9.40;;;6.57;;
5054;SDS011;13829;48.990;8.346;2024-03-17T01:38:50;8.17;;;7.00;;
5054;SDS011;13829;48.990;8.346;2024-03-17T01:41:16;7.23;;;6.20;;
5054;SDS011;13829;48.990;8.346;2024-03-17T01:43:43;9.57;;;6.13;;
5054;SDS011;13829;48.990;8.346;2024-03-17T01:46:09;8.70;;;6.13;;
5054;SDS011;13829;48.990;8.346;2024-03-17T01:48:41;7.00;;;6.13;;
5054;SDS011;13829;48.990;8.346;2024-03-17T01:51:08;7.77;;;5.93;;
5054;SDS011;13829;48.990;8.346;2024-03-17T01:53:37;9.00;;;6.57;;
5054;SDS011;13829;48.990;8.346;2024-03-17T01:56:05;8.13;;;6.53;;
5054;SDS011;13829;48.990;8.346;2024-03-17T01:58:35;9.20;;;6.50;;
5054;SDS011;13829;48.990;8.346;2024-03-17T02:01:02;9.77;;;6.07;;
5054;SDS011;13829;48.990;8.346;2024-03-17T02:03:30;9.43;;;6.57;;
5054;SDS011;13829;48.990;8.346;2024-03-17T02:05:57;10.23;;;6.63;;
5054;SDS011;13829;48.990;8.346;2024-03-17T02:08:25;10.67;;;6.80;;
5054;SDS011;13829;48.990;8.346;2024-03-17T02:10:52;10.73;;;6.47;;
5054;SDS011;13829;48.990;8.346;2024-03-17T02:13:20;7.90;;;6.60;;
5054;SDS011;13829;48.990;8.346;2024-03-17T02:15:46;7.27;;;5.83;;
5054;SDS011;13829;48.990;8.346;2024-03-17T02:18:13;7.53;;;6.23;;
5054;SDS011;13829;48.990;8.346;2024-03-17T02:20:39;8.07;;;5.90;;
5054;SDS011;13829;48.990;8.346;2024-03-17T02:23:25;11.30;;;6.70;;
5054;SDS011;13829;48.990;8.346;2024-03-17T02:25:52;7.00;;;5.93;;
5054;SDS011;13829;48.990;8.346;2024-03-17T02:28:19;7.27;;;5.90;;
5054;SDS011;13829;48.990;8.346;2024-03-17T02:30:45;7.83;;;6.40;;
5054;SDS011;13829;48.990;8.346;2024-03-17T02:33:12;7.03;;;5.30;;
5054;SDS011;13829;48.990;8.346;2024-03-17T02:35:38;8.37;;;5.47;;
5054;SDS011;13829;48.990;8.346;2024-03-17T02:38:06;9.33;;;6.83;;
5054;SDS011;13829;48.990;8.346;2024-03-17T02:40:34;8.00;;;5.83;;
5054;SDS011;13829;48.990;8.346;2024-03-17T02:43:01;6.93;;;6.00;;
5054;SDS011;13829;48.990;8.346;2024-03-17T02:45:28;8.10;;;6.27;;
5054;SDS011;13829;48.990;8.346;2024-03-17T02:47:55;7.57;;;5.60;;
5054;SDS011;13829;48.990;8.346;2024-03-17T02:50:22;8.80;;;5.60;;
5054;SDS011;13829;48.990;8.346;2024-03-17T02:52:49;5.50;;;4.90;;
5054;SDS011;13829;48.990;8.346;2024-03-17T02:55:16;6.13;;;5.20;;
5054;SDS011;13829;48.990;8.346;2024-03-17T02:57:44;6.53;;;5.83;;
5054;SDS011;13829;48.990;8.346;2024-03-17T03:00:12;5.60;;;4.73;;
5054;SDS011;13829;48.990;8.346;2024-03-17T03:02:39;7.00;;;5.03;;
5054;SDS011;13829;48.990;8.346;2024-03-17T03:05:05;5.30;;;4.70;;
5054;SDS011;13829;48.990;8.346;2024-03-17T03:07:33;6.70;;;4.97;;
5054;SDS011;13829;48.990;8.346;2024-03-17T03:10:00;6.90;;;4.90;;
5054;SDS011;13829;48.990;8.346;2024-03-17T03:12:27;7.67;;;6.03;;
5054;SDS011;13829;48.990;8.346;2024-03-17T03:14:55;6.90;;;5.17;;
5054;SDS011;13829;48.990;8.346;2024-03-17T03:17:22;5.80;;;4.90;;
5054;SDS011;13829;48.990;8.346;2024-03-17T03:19:49;5.43;;;4.90;;
5054;SDS011;13829;48.990;8.346;2024-03-17T03:22:16;5.87;;;4.90;;
5054;SDS011;13829;48.990;8.346;2024-03-17T03:24:43;5.43;;;4.90;;
5054;SDS011;13829;48.990;8.346;2024-03-17T03:27:10;8.73;;;5.23;;
5054;SDS011;13829;48.990;8.346;2024-03-17T03:29:38;7.03;;;5.23;;
5054;SDS011;13829;48.990;8.346;2024-03-17T03:32:06;6.23;;;4.83;;
5054;SDS011;13829;48.990;8.346;2024-03-17T03:34:33;5.27;;;4.73;;
5054;SDS011;13829;48.990;8.346;2024-03-17T03:37:00;5.27;;;4.77;;
5054;SDS011;13829;48.990;8.346;2024-03-17T03:39:27;7.60;;;5.03;;
5054;SDS011;13829;48.990;8.346;2024-03-17T03:41:57;6.83;;;5.83;;
5054;SDS011;13829;48.990;8.346;2024-03-17T03:44:24;6.90;;;5.13;;
5054;SDS011;13829;48.990;8.346;2024-03-17T03:46:51;7.80;;;5.77;;
5054;SDS011;13829;48.990;8.346;2024-03-17T03:49:23;7.00;;;5.90;;
5054;SDS011;13829;48.990;8.346;2024-03-17T03:51:50;7.27;;;5.47;;
5054;SDS011;13829;48.990;8.346;2024-03-17T03:54:16;7.60;;;5.63;;
5054;SDS011;13829;48.990;8.346;2024-03-17T03:56:43;6.87;;;5.57;;
5054;SDS011;13829;48.990;8.346;2024-03-17T03:59:10;6.43;;;5.20;;
5054;SDS011;13829;48.990;8.346;2024-03-17T04:01:37;5.90;;;5.07;;
5054;SDS011;13829;48.990;8.346;2024-03-17T04:04:04;6.10;;;5.40;;
5054;SDS011;13829;48.990;8.346;2024-03-17T04:06:32;6.87;;;4.90;;
5054;SDS011;13829;48.990;8.346;2024-03-17T04:09:02;7.47;;;5.50;;
5054;SDS011;13829;48.990;8.346;2024-03-17T04:11:30;6.47;;;5.33;;
5054;SDS011;13829;48.990;8.346;2024-03-17T04:13:59;6.80;;;4.87;;
5054;SDS011;13829;48.990;8.346;2024-03-17T04:16:26;5.43;;;4.37;;
5054;SDS011;13829;48.990;8.346;2024-03-17T04:18:53;8.67;;;5.53;;
5054;SDS011;13829;48.990;8.346;2024-03-17T04:21:20;5.93;;;5.10;;
5054;SDS011;13829;48.990;8.346;2024-03-17T04:23:48;7.80;;;5.10;;
5054;SDS011;13829;48.990;8.346;2024-03-17T04:26:15;5.80;;;4.53;;
5054;SDS011;13829;48.990;8.346;2024-03-17T04:28:43;7.10;;;5.10;;
5054;SDS011;13829;48.990;8.346;2024-03-17T04:31:10;6.67;;;4.93;;
5054;SDS011;13829;48.990;8.346;2024-03-17T04:33:37;6.90;;;5.50;;
5054;SDS011;13829;48.990;8.346;2024-03-17T04:36:04;7.70;;;5.50;;
5054;SDS011;13829;48.990;8.346;2024-03-17T04:38:33;7.50;;;5.33;;
5054;SDS011;13829;48.990;8.346;2024-03-17T04:41:02;5.23;;;4.47;;
5054;SDS011;13829;48.990;8.346;2024-03-17T04:43:34;8.20;;;5.27;;
5054;SDS011;13829;48.990;8.346;2024-03-17T04:46:02;5.93;;;5.20;;
5054;SDS011;13829;48.990;8.346;2024-03-17T04:48:32;6.60;;;5.37;;
5054;SDS011;13829;48.990;8.346;2024-03-17T04:51:00;5.93;;;4.97;;
5054;SDS011;13829;48.990;8.346;2024-03-17T04:53:27;5.97;;;4.93;;
5054;SDS011;13829;48.990;8.346;2024-03-17T04:55:59;5.63;;;4.80;;
5054;SDS011;13829;48.990;8.346;2024-03-17T04:58:29;7.20;;;5.63;;
5054;SDS011;13829;48.990;8.346;2024-03-17T05:00:57;5.03;;;4.53;;
5054;SDS011;13829;48.990;8.346;2024-03-17T05:03:28;6.73;;;4.57;;
5054;SDS011;13829;48.990;8.346;2024-03-17T05:05:58;6.87;;;5.20;;
5054;SDS011;13829;48.990;8.346;2024-03-17T05:08:29;5.57;;;4.93;;
5054;SDS011;13829;48.990;8.346;2024-03-17T05:10:57;4.97;;;4.47;;
5054;SDS011;13829;48.990;8.346;2024-03-17T05:13:26;7.73;;;5.03;;
5054;SDS011;13829;48.990;8.346;2024-03-17T05:15:53;6.03;;;5.43;;
5054;SDS011;13829;48.990;8.346;2024-03-17T05:18:20;7.20;;;5.60;;
5054;SDS011;13829;48.990;8.346;2024-03-17T05:20:56;6.60;;;4.50;;
5054;SDS011;13829;48.990;8.346;2024-03-17T05:23:24;6.03;;;4.83;;
5054;SDS011;13829;48.990;8.346;2024-03-17T05:25:53;6.40;;;5.00;;
5054;SDS011;13829;48.990;8.346;2024-03-17T05:28:21;5.70;;;5.10;;
5054;SDS011;13829;48.990;8.346;2024-03-17T05:30:49;7.10;;;5.13;;
5054;SDS011;13829;48.990;8.346;2024-03-17T05:33:17;5.43;;;4.93;;
5054;SDS011;13829;48.990;8.346;2024-03-17T05:35:49;6.33;;;5.13;;
5054;SDS011;13829;48.990;8.346;2024-03-17T05:38:17;5.90;;;5.17;;
5054;SDS011;13829;48.990;8.346;2024-03-17T05:40:52;8.27;;;5.00;;
5054;SDS011;13829;48.990;8.346;2024-03-17T05:43:22;7.57;;;6.07;;
5054;SDS011;13829;48.990;8.346;2024-03-17T05:45:51;6.73;;;5.57;;
5054;SDS011;13829;48.990;8.346;2024-03-17T05:48:18;7.30;;;6.53;;
5054;SDS011;13829;48.990;8.346;2024-03-17T05:50:46;8.43;;;6.07;;
5054;SDS011;13829;48.990;8.346;2024-03-17T05:53:13;6.43;;;5.60;;
5054;SDS011;13829;48.990;8.346;2024-03-17T05:55:40;6.60;;;5.67;;
5054;SDS011;13829;48.990;8.346;2024-03-17T05:58:08;6.57;;;5.87;;
5054;SDS011;13829;48.990;8.346;2024-03-17T06:00:35;6.43;;;5.37;;
5054;SDS011;13829;48.990;8.346;2024-03-17T06:03:04;9.00;;;6.37;;
5054;SDS011;13829;48.990;8.346;2024-03-17T06:05:32;7.07;;;6.33;;
5054;SDS011;13829;48.990;8.346;2024-03-17T06:08:00;8.10;;;7.30;;
5054;SDS011;13829;48.990;8.346;2024-03-17T06:10:28;8.03;;;7.23;;
5054;SDS011;13829;48.990;8.346;2024-03-17T06:12:55;7.30;;;6.60;;
5054;SDS011;13829;48.990;8.346;2024-03-17T06:15:22;12.13;;;7.70;;
5054;SDS011;13829;48.990;8.346;2024-03-17T06:17:49;9.43;;;8.00;;
5054;SDS011;13829;48.990;8.346;2024-03-17T06:20:19;8.83;;;7.93;;
5054;SDS011;13829;48.990;8.346;2024-03-17T06:22:46;9.73;;;7.17;;
5054;SDS011;13829;48.990;8.346;2024-03-17T06:25:14;9.00;;;7.47;;
5054;SDS011;13829;48.990;8.346;2024-03-17T06:27:41;10.07;;;7.40;;
5054;SDS011;13829;48.990;8.346;2024-03-17T06:30:10;9.13;;;7.53;;
5054;SDS011;13829;48.990;8.346;2024-03-17T06:32:39;8.70;;;7.30;;
5054;SDS011;13829;48.990;8.346;2024-03-17T06:35:07;8.43;;;6.93;;
5054;SDS011;13829;48.990;8.346;2024-03-17T06:37:36;9.30;;;7.80;;
5054;SDS011;13829;48.990;8.346;2024-03-17T06:40:03;9.90;;;7.50;;
5054;SDS011;13829;48.990;8.346;2024-03-17T06:42:32;8.40;;;6.93;;
5054;SDS011;13829;48.990;8.346;2024-03-17T06:44:59;9.73;;;6.80;;
5054;SDS011;13829;48.990;8.346;2024-03-17T06:47:28;7.60;;;6.80;;
5054;SDS011;13829;48.990;8.346;2024-03-17T06:49:55;8.53;;;7.30;;
5054;SDS011;13829;48.990;8.346;2024-03-17T06:52:22;8.00;;;7.13;;
5054;SDS011;13829;48.990;8.346;2024-03-17T06:54:50;8.43;;;6.47;;
5054;SDS011;13829;48.990;8.346;2024-03-17T06:57:17;8.00;;;6.60;;
5054;SDS011;13829;48.990;8.346;2024-03-17T06:59:44;7.90;;;6.33;;
5054;SDS011;13829;48.990;8.346;2024-03-17T07:02:13;9.37;;;6.00;;
5054;SDS011;13829;48.990;8.346;2024-03-17T07:04:42;7.30;;;6.60;;
5054;SDS011;13829;48.990;8.346;2024-03-17T07:07:09;7.17;;;6.47;;
5054;SDS011;13829;48.990;8.346;2024-03-17T07:09:38;8.27;;;6.60;;
5054;SDS011;13829;48.990;8.346;2024-03-17T07:12:07;7.63;;;6.33;;
5054;SDS011;13829;48.990;8.346;2024-03-17T07:14:35;6.87;;;5.90;;
5054;SDS011;13829;48.990;8.346;2024-03-17T07:17:03;7.50;;;5.43;;
5054;SDS011;13829;48.990;8.346;2024-03-17T07:19:30;7.43;;;5.80;;
5054;SDS011;13829;48.990;8.346;2024-03-17T07:21:57;7.10;;;5.70;;
5054;SDS011;13829;48.990;8.346;2024-03-17T07:24:24;6.13;;;5.53;;
5054;SDS011;13829;48.990;8.346;2024-03-17T07:26:52;5.93;;;5.27;;
5054;SDS011;13829;48.990;8.346;2024-03-17T07:29:21;7.27;;;5.37;;
5054;SDS011;13829;48.990;8.346;2024-03-17T07:31:48;5.80;;;5.20;;
5054;SDS011;13829;48.990;8.346;2024-03-17T07:34:15;7.93;;;5.00;;
5054;SDS011;13829;48.990;8.346;2024-03-17T07:36:42;5.07;;;4.53;;
5054;SDS011;13829;48.990;8.346;2024-03-17T07:39:09;8.03;;;5.57;;
5054;SDS011;13829;48.990;8.346;2024-03-17T07:41:37;6.30;;;5.70;;
5054;SDS011;13829;48.990;8.346;2024-03-17T07:44:04;5.93;;;4.97;;
5054;SDS011;13829;48.990;8.346;2024-03-17T07:46:33;10.03;;;5.50;;
5054;SDS011;13829;48.990;8.346;2024-03-17T07:49:00;6.03;;;5.37;;
5054;SDS011;13829;48.990;8.346;2024-03-17T07:51:27;6.70;;;5.13;;
5054;SDS011;13829;48.990;8.346;2024-03-17T07:53:54;6.40;;;5.40;;
5054;SDS011;13829;48.990;8.346;2024-03-17T07:56:21;6.63;;;5.67;;
5054;SDS011;13829;48.990;8.346;2024-03-17T07:58:48;7.60;;;5.43;;
5054;SDS011;13829;48.990;8.346;2024-03-17T08:01:16;5.90;;;5.13;;
5054;SDS011;13829;48.990;8.346;2024-03-17T08:03:46;8.00;;;6.07;;
5054;SDS011;13829;48.990;8.346;2024-03-17T08:06:14;9.53;;;5.47;;
5054;SDS011;13829;48.990;8.346;2024-03-17T08:08:41;7.63;;;5.83;;
5054;SDS011;13829;48.990;8.346;2024-03-17T08:11:08;6.20;;;5.60;;
5054;SDS011;13829;48.990;8.346;2024-03-17T08:13:35;5.87;;;5.27;;
5054;SDS011;13829;48.990;8.346;2024-03-17T08:16:02;6.47;;;5.53;;
5054;SDS011;13829;48.990;8.346;2024-03-17T08:18:31;5.90;;;5.40;;
5054;SDS011;13829;48.990;8.346;2024-03-17T08:21:01;8.70;;;5.57;;
5054;SDS011;13829;48.990;8.346;2024-03-17T08:23:31;7.33;;;5.23;;
5054;SDS011;13829;48.990;8.346;2024-03-17T08:26:01;8.60;;;5.33;;
5054;SDS011;13829;48.990;8.346;2024-03-17T08:28:28;6.83;;;5.63;;
5054;SDS011;13829;48.990;8.346;2024-03-17T08:30:56;7.03;;;5.43;;
5054;SDS011;13829;48.990;8.346;2024-03-17T08:33:24;25.37;;;18.40;;
5054;SDS011;13829;48.990;8.346;2024-03-17T08:35:52;16.90;;;12.73;;
5054;SDS011;13829;48.990;8.346;2024-03-17T08:38:22;9.43;;;6.90;;
5054;SDS011;13829;48.990;8.346;2024-03-17T08:40:50;8.70;;;6.40;;
5054;SDS011;13829;48.990;8.346;2024-03-17T08:43:18;8.43;;;5.80;;
5054;SDS011;13829;48.990;8.346;2024-03-17T08:45:53;6.77;;;5.97;;
5054;SDS011;13829;48.990;8.346;2024-03-17T08:48:23;5.87;;;5.27;;
5054;SDS011;13829;48.990;8.346;2024-03-17T08:50:51;8.83;;;5.57;;
5054;SDS011;13829;48.990;8.346;2024-03-17T08:53:18;6.13;;;5.43;;
5054;SDS011;13829;48.990;8.346;2024-03-17T08:55:47;5.97;;;5.37;;
5054;SDS011;13829;48.990;8.346;2024-03-17T08:58:14;6.83;;;5.83;;
5054;SDS011;13829;48.990;8.346;2024-03-17T09:00:41;6.60;;;5.40;;
5054;SDS011;13829;48.990;8.346;2024-03-17T09:03:09;7.33;;;5.23;;
5054;SDS011;13829;48.990;8.346;2024-03-17T09:05:37;6.70;;;5.20;;
5054;SDS011;13829;48.990;8.346;2024-03-17T09:08:05;6.57;;;4.80;;
5054;SDS011;13829;48.990;8.346;2024-03-17T09:10:38;7.00;;;5.80;;
5054;SDS011;13829;48.990;8.346;2024-03-17T09:13:07;6.87;;;5.63;;
5054;SDS011;13829;48.990;8.346;2024-03-17T09:15:39;5.93;;;5.40;;
5054;SDS011;13829;48.990;8.346;2024-03-17T09:18:06;6.43;;;5.27;;
5054;SDS011;13829;48.990;8.346;2024-03-17T09:20:33;6.47;;;5.60;;
5054;SDS011;13829;48.990;8.346;2024-03-17T09:23:00;5.37;;;4.87;;
5054;SDS011;13829;48.990;8.346;2024-03-17T09:25:27;8.67;;;5.77;;
5054;SDS011;13829;48.990;8.346;2024-03-17T09:27:55;6.30;;;5.60;;
5054;SDS011;13829;48.990;8.346;2024-03-17T09:30:23;6.90;;;5.53;;
5054;SDS011;13829;48.990;8.346;2024-03-17T09:32:50;7.80;;;5.73;;
5054;SDS011;13829;48.990;8.346;2024-03-17T09:35:17;6.67;;;5.97;;
5054;SDS011;13829;48.990;8.346;2024-03-17T09:37:44;6.23;;;5.63;;
5054;SDS011;13829;48.990;8.346;2024-03-17T09:40:13;6.63;;;5.97;;
5054;SDS011;13829;48.990;8.346;2024-03-17T09:42:41;8.10;;;5.87;;
5054;SDS011;13829;48.990;8.346;2024-03-17T09:45:08;6.23;;;5.57;;
5054;SDS011;13829;48.990;8.346;2024-03-17T09:47:38;8.40;;;6.17;;
5054;SDS011;13829;48.990;8.346;2024-03-17T09:50:07;6.97;;;5.60;;
5054;SDS011;13829;48.990;8.346;2024-03-17T09:52:40;5.77;;;5.27;;
5054;SDS011;13829;48.990;8.346;2024-03-17T09:55:13;6.73;;;5.60;;
5054;SDS011;13829;48.990;8.346;2024-03-17T09:57:42;6.13;;;5.53;;
5054;SDS011;13829;48.990;8.346;2024-03-17T10:00:13;6.90;;;5.73;;
5054;SDS011;13829;48.990;8.346;2024-03-17T10:02:43;6.00;;;5.30;;
5054;SDS011;13829;48.990;8.346;2024-03-17T10:05:18;8.80;;;5.40;;
5054;SDS011;13829;48.990;8.346;2024-03-17T10:07:47;8.63;;;5.47;;
5054;SDS011;13829;48.990;8.346;2024-03-17T10:10:14;5.70;;;5.10;;
5054;SDS011;13829;48.990;8.346;2024-03-17T10:12:43;5.07;;;4.63;;
5054;SDS011;13829;48.990;8.346;2024-03-17T10:15:14;7.27;;;5.27;;
5054;SDS011;13829;48.990;8.346;2024-03-17T10:17:43;6.00;;;5.33;;
5054;SDS011;13829;48.990;8.346;2024-03-17T10:20:11;7.70;;;5.30;;
5054;SDS011;13829;48.990;8.346;2024-03-17T10:22:51;6.23;;;5.43;;
5054;SDS011;13829;48.990;8.346;2024-03-17T10:25:25;6.40;;;5.13;;
5054;SDS011;13829;48.990;8.346;2024-03-17T10:27:52;6.30;;;5.20;;
5054;SDS011;13829;48.990;8.346;2024-03-17T10:30:20;6.33;;;5.53;;
5054;SDS011;13829;48.990;8.346;2024-03-17T10:32:56;7.63;;;6.10;;
5054;SDS011;13829;48.990;8.346;2024-03-17T10:35:29;6.63;;;5.93;;
5054;SDS011;13829;48.990;8.346;2024-03-17T10:37:58;7.37;;;5.67;;
5054;SDS011;13829;48.990;8.346;2024-03-17T10:40:26;7.67;;;5.20;;
5054;SDS011;13829;48.990;8.346;2024-03-17T10:42:55;6.83;;;6.13;;
5054;SDS011;13829;48.990;8.346;2024-03-17T10:45:25;5.83;;;4.63;;
5054;SDS011;13829;48.990;8.346;2024-03-17T10:47:58;7.47;;;5.10;;
5054;SDS011;13829;48.990;8.346;2024-03-17T10:50:26;5.40;;;4.63;;
5054;SDS011;13829;48.990;8.346;2024-03-17T10:52:58;6.17;;;5.23;;
5054;SDS011;13829;48.990;8.346;2024-03-17T10:55:35;6.43;;;4.83;;
5054;SDS011;13829;48.990;8.346;2024-03-17T10:58:15;7.13;;;5.13;;
5054;SDS011;13829;48.990;8.346;2024-03-17T11:00:52;6.67;;;4.87;;
5054;SDS011;13829;48.990;8.346;2024-03-17T11:03:20;6.17;;;4.90;;
5054;SDS011;13829;48.990;8.346;2024-03-17T11:05:48;5.80;;;5.07;;
5054;SDS011;13829;48.990;8.346;2024-03-17T11:08:18;8.20;;;5.20;;
5054;SDS011;13829;48.990;8.346;2024-03-17T11:10:49;7.17;;;5.13;;
5054;SDS011;13829;48.990;8.346;2024-03-17T11:13:22;5.27;;;4.70;;
5054;SDS011;13829;48.990;8.346;2024-03-17T11:15:51;6.37;;;4.63;;
5054;SDS011;13829;48.990;8.346;2024-03-17T11:18:35;5.23;;;4.73;;
5054;SDS011;13829;48.990;8.346;2024-03-17T11:21:06;8.27;;;4.80;;
5054;SDS011;13829;48.990;8.346;2024-03-17T11:24:00;5.23;;;4.50;;
5054;SDS011;13829;48.990;8.346;2024-03-17T11:26:29;8.07;;;4.83;;
5054;SDS011;13829;48.990;8.346;2024-03-17T11:29:00;5.30;;;4.80;;
5054;SDS011;13829;48.990;8.346;2024-03-17T11:31:35;5.20;;;4.70;;
5054;SDS011;13829;48.990;8.346;2024-03-17T11:37:02;4.73;;;3.80;;
5054;SDS011;13829;48.990;8.346;2024-03-17T11:39:45;6.57;;;4.63;;
5054;SDS011;13829;48.990;8.346;2024-03-17T11:42:15;4.37;;;3.97;;
5054;SDS011;13829;48.990;8.346;2024-03-17T11:44:42;5.73;;;4.13;;
5054;SDS011;13829;48.990;8.346;2024-03-17T11:47:18;4.77;;;4.17;;
5054;SDS011;13829;48.990;8.346;2024-03-17T11:49:47;4.93;;;3.93;;
5054;SDS011;13829;48.990;8.346;2024-03-17T11:52:16;5.87;;;4.23;;
5054;SDS011;13829;48.990;8.346;2024-03-17T11:54:46;7.17;;;4.50;;
5054;SDS011;13829;48.990;8.346;2024-03-17T11:57:14;6.53;;;4.70;;
5054;SDS011;13829;48.990;8.346;2024-03-17T11:59:48;4.50;;;4.10;;
5054;SDS011;13829;48.990;8.346;2024-03-17T12:02:16;5.27;;;4.10;;
5054;SDS011;13829;48.990;8.346;2024-03-17T12:04:48;5.60;;;3.90;;
5054;SDS011;13829;48.990;8.346;2024-03-17T12:07:16;5.30;;;4.17;;
5054;SDS011;13829;48.990;8.346;2024-03-17T12:09:43;4.93;;;4.43;;
5054;SDS011;13829;48.990;8.346;2024-03-17T12:12:13;5.43;;;4.77;;
5054;SDS011;13829;48.990;8.346;2024-03-17T12:14:44;5.07;;;4.57;;
5054;SDS011;13829;48.990;8.346;2024-03-17T12:17:13;4.97;;;4.47;;
5054;SDS011;13829;48.990;8.346;2024-03-17T12:19:45;7.20;;;5.30;;
5054;SDS011;13829;48.990;8.346;2024-03-17T12:22:15;7.03;;;4.43;;
5054;SDS011;13829;48.990;8.346;2024-03-17T12:24:47;4.77;;;3.93;;
5054;SDS011;13829;48.990;8.346;2024-03-17T12:27:16;9.20;;;4.83;;
5054;SDS011;13829;48.990;8.346;2024-03-17T12:29:44;6.13;;;4.03;;
5054;SDS011;13829;48.990;8.346;2024-03-17T12:32:12;3.57;;;3.27;;
5054;SDS011;13829;48.990;8.346;2024-03-17T12:34:41;3.90;;;3.33;;
5054;SDS011;13829;48.990;8.346;2024-03-17T12:37:13;5.00;;;3.77;;
5054;SDS011;13829;48.990;8.346;2024-03-17T12:39:44;6.80;;;4.23;;
5054;SDS011;13829;48.990;8.346;2024-03-17T12:42:12;4.40;;;3.40;;
5054;SDS011;13829;48.990;8.346;2024-03-17T12:44:40;4.93;;;3.40;;
5054;SDS011;13829;48.990;8.346;2024-03-17T12:47:15;4.00;;;3.50;;
5054;SDS011;13829;48.990;8.346;2024-03-17T12:49:45;4.30;;;3.60;;
5054;SDS011;13829;48.990;8.346;2024-03-17T12:52:21;4.57;;;3.37;;
5054;SDS011;13829;48.990;8.346;2024-03-17T12:54:57;4.00;;;3.23;;
5054;SDS011;13829;48.990;8.346;2024-03-17T12:57:39;4.70;;;3.47;;
5054;SDS011;13829;48.990;8.346;2024-03-17T13:00:24;4.27;;;3.27;;
5054;SDS011;13829;48.990;8.346;2024-03-17T13:02:57;2.87;;;2.57;;
5054;SDS011;13829;48.990;8.346;2024-03-17T13:05:25;4.33;;;2.50;;
5054;SDS011;13829;48.990;8.346;2024-03-17T13:07:54;2.93;;;2.50;;
5054;SDS011;13829;48.990;8.346;2024-03-17T13:10:22;2.77;;;2.53;;
5054;SDS011;13829;48.990;8.346;2024-03-17T13:12:58;3.10;;;2.70;;
5054;SDS011;13829;48.990;8.346;2024-03-17T13:15:27;3.53;;;2.90;;
5054;SDS011;13829;48.990;8.346;2024-03-17T13:17:56;4.10;;;2.80;;
5054;SDS011;13829;48.990;8.346;2024-03-17T13:20:24;3.33;;;2.73;;
5054;SDS011;13829;48.990;8.346;2024-03-17T13:22:53;3.40;;;2.70;;
5054;SDS011;13829;48.990;8.346;2024-03-17T13:25:22;4.53;;;3.10;;
5054;SDS011;13829;48.990;8.346;2024-03-17T13:27:53;5.23;;;2.87;;
5054;SDS011;13829;48.990;8.346;2024-03-17T13:30:20;4.43;;;3.33;;
5054;SDS011;13829;48.990;8.346;2024-03-17T13:32:52;4.67;;;3.20;;
5054;SDS011;13829;48.990;8.346;2024-03-17T13:35:23;4.93;;;2.97;;
5054;SDS011;13829;48.990;8.346;2024-03-17T13:37:51;2.85;;;2.58;;
5054;SDS011;13829;48.990;8.346;2024-03-17T13:40:20;4.35;;;2.97;;
5054;SDS011;13829;48.990;8.346;2024-03-17T13:42:49;4.72;;;3.10;;
5054;SDS011;13829;48.990;8.346;2024-03-17T13:45:18;3.97;;;3.47;;
5054;SDS011;13829;48.990;8.346;2024-03-17T13:47:49;5.28;;;3.30;;
5054;SDS011;13829;48.990;8.346;2024-03-17T13:50:23;4.28;;;3.78;;
5054;SDS011;13829;48.990;8.346;2024-03-17T13:52:50;5.13;;;3.70;;
5054;SDS011;13829;48.990;8.346;2024-03-17T13:55:19;6.77;;;3.70;;
5054;SDS011;13829;48.990;8.346;2024-03-17T13:57:50;4.80;;;3.90;;
5054;SDS011;13829;48.990;8.346;2024-03-17T14:00:20;4.57;;;2.80;;
5054;SDS011;13829;48.990;8.346;2024-03-17T14:02:48;3.53;;;2.77;;
5054;SDS011;13829;48.990;8.346;2024-03-17T14:05:17;6.27;;;4.13;;
5054;SDS011;13829;48.990;8.346;2024-03-17T14:07:46;5.53;;;3.53;;
5054;SDS011;13829;48.990;8.346;2024-03-17T14:10:14;4.80;;;3.70;;
5054;SDS011;13829;48.990;8.346;2024-03-17T14:12:44;4.60;;;3.80;;
5054;SDS011;13829;48.990;8.346;2024-03-17T14:15:12;4.27;;;3.03;;
5054;SDS011;13829;48.990;8.346;2024-03-17T14:17:41;3.63;;;3.07;;
5054;SDS011;13829;48.990;8.346;2024-03-17T14:20:11;3.47;;;3.15;;
5054;SDS011;13829;48.990;8.346;2024-03-17T14:22:43;3.13;;;2.47;;
5054;SDS011;13829;48.990;8.346;2024-03-17T14:25:14;4.30;;;1.90;;
5054;SDS011;13829;48.990;8.346;2024-03-17T14:27:44;4.00;;;2.57;;
5054;SDS011;13829;48.990;8.346;2024-03-17T14:30:14;3.40;;;2.40;;
5054;SDS011;13829;48.990;8.346;2024-03-17T14:32:43;4.40;;;2.40;;
5054;SDS011;13829;48.990;8.346;2024-03-17T14:35:11;5.70;;;3.17;;
5054;SDS011;13829;48.990;8.346;2024-03-17T14:37:41;3.90;;;2.30;;
5054;SDS011;13829;48.990;8.346;2024-03-17T14:40:12;3.73;;;2.40;;
5054;SDS011;13829;48.990;8.346;2024-03-17T14:42:46;4.40;;;2.57;;
5054;SDS011;13829;48.990;8.346;2024-03-17T14:45:14;3.13;;;2.43;;
5054;SDS011;13829;48.990;8.346;2024-03-17T14:47:41;4.47;;;2.70;;
5054;SDS011;13829;48.990;8.346;2024-03-17T14:50:09;3.87;;;2.43;;
5054;SDS011;13829;48.990;8.346;2024-03-17T14:52:38;3.93;;;2.47;;
5054;SDS011;13829;48.990;8.346;2024-03-17T14:55:05;3.30;;;2.40;;
5054;SDS011;13829;48.990;8.346;2024-03-17T14:57:34;2.40;;;2.03;;
5054;SDS011;13829;48.990;8.346;2024-03-17T15:00:03;3.73;;;2.40;;
5054;SDS011;13829;48.990;8.346;2024-03-17T15:02:41;2.70;;;2.50;;
5054;SDS011;13829;48.990;8.346;2024-03-17T15:05:08;6.50;;;2.90;;
5054;SDS011;13829;48.990;8.346;2024-03-17T15:07:35;4.80;;;2.60;;
5054;SDS011;13829;48.990;8.346;2024-03-17T15:10:03;3.50;;;2.30;;
5054;SDS011;13829;48.990;8.346;2024-03-17T15:12:31;4.43;;;2.53;;